createdAt,value
2022-09-12T00:01:24.539Z,95872.34
2022-09-12T00:03:54.484Z,95866.69
2022-09-12T00:06:25.464Z,95871.84
2022-09-12T00:08:56.657Z,95853.31
2022-09-12T00:11:26.941Z,95870.25
2022-09-12T00:13:58.804Z,95800.78
2022-09-12T00:16:29.649Z,95877.84
2022-09-12T00:18:58.128Z,95844.41
2022-09-12T00:21:26.639Z,95867.59
2022-09-12T00:23:55.676Z,95849.00
2022-09-12T00:26:26.096Z,95869.50
2022-09-12T00:28:54.967Z,95854.19
2022-09-12T00:31:25.555Z,95863.06
2022-09-12T00:33:56.349Z,95859.00
2022-09-12T00:36:26.796Z,95820.78
2022-09-12T00:38:55.976Z,95863.34
2022-09-12T00:41:27.790Z,95832.09
2022-09-12T00:43:58.618Z,95853.09
2022-09-12T00:46:37.152Z,95850.94
2022-09-12T00:49:09.153Z,95857.47
2022-09-12T00:51:38.824Z,95840.25
2022-09-12T00:54:12.318Z,95844.03
2022-09-12T00:56:45.018Z,95847.81
2022-09-12T00:59:16.836Z,95839.72
2022-09-12T01:01:48.190Z,95836.22
2022-09-12T01:04:19.260Z,95837.56
2022-09-12T01:06:49.307Z,95831.59
2022-09-12T01:09:20.582Z,95835.94
2022-09-12T01:11:52.044Z,95836.47
2022-09-12T01:14:22.797Z,95834.28
2022-09-12T01:16:52.448Z,95831.59
2022-09-12T01:19:51.518Z,95778.03
2022-09-12T01:22:36.400Z,95819.78
2022-09-12T01:25:12.779Z,95817.31
2022-09-12T01:27:52.464Z,95815.47
2022-09-12T01:30:26.110Z,95814.38
2022-09-12T01:33:23.019Z,95814.94
2022-09-12T01:36:04.084Z,95811.97
2022-09-12T01:38:39.012Z,95796.66
2022-09-12T01:41:16.306Z,95814.13
2022-09-12T01:43:52.679Z,95814.38
2022-09-12T01:46:26.985Z,95809.00
2022-09-12T01:49:00.352Z,95811.41
2022-09-12T01:51:34.432Z,95811.41
2022-09-12T01:54:10.130Z,95739.78
2022-09-12T01:56:42.460Z,95809.28
2022-09-12T01:59:18.212Z,95805.78
2022-09-12T02:01:55.131Z,95807.66
2022-09-12T02:04:31.122Z,95798.75
2022-09-12T02:07:08.588Z,95794.97
2022-09-12T02:09:39.829Z,95796.06
2022-09-12T02:12:12.614Z,95792.81
2022-09-12T02:14:46.000Z,95791.22
2022-09-12T02:17:19.348Z,95786.09
2022-09-12T02:19:51.555Z,95785.59
2022-09-12T02:22:22.859Z,95788.56
2022-09-12T02:24:56.135Z,95773.72
2022-09-12T02:27:27.966Z,95797.19
2022-09-12T02:29:56.500Z,95792.34
2022-09-12T02:32:34.420Z,95793.94
2022-09-12T02:35:07.484Z,95792.88
2022-09-12T02:37:51.776Z,95683.56
2022-09-12T02:40:20.633Z,95790.72
2022-09-12T02:42:49.376Z,95788.03
2022-09-12T02:45:18.153Z,95790.72
2022-09-12T02:47:52.144Z,95791.25
2022-09-12T02:50:21.036Z,95743.31
2022-09-12T02:52:50.269Z,95758.41
2022-09-12T02:55:19.184Z,95784.53
2022-09-12T02:57:47.518Z,95784.28
2022-09-12T03:00:16.554Z,95786.16
2022-09-12T03:03:10.648Z,95784.28
2022-09-12T03:05:44.850Z,95786.44
2022-09-12T03:08:27.152Z,95782.66
2022-09-12T03:11:09.262Z,95783.47
2022-09-12T03:13:46.558Z,95783.47
2022-09-12T03:16:21.971Z,95786.44
2022-09-12T03:19:00.331Z,95781.06
2022-09-12T03:21:35.135Z,95774.03
2022-09-12T03:24:15.536Z,95775.91
2022-09-12T03:26:49.039Z,95780.78
2022-09-12T03:29:20.640Z,95780.50
2022-09-12T03:31:54.323Z,95778.63
2022-09-12T03:34:24.887Z,95776.19
2022-09-12T03:36:55.872Z,95771.91
2022-09-12T03:39:26.619Z,95782.13
2022-09-12T03:41:55.107Z,95781.88
2022-09-12T03:44:23.655Z,95750.91
2022-09-12T03:46:51.975Z,95781.59
2022-09-12T03:49:20.401Z,95772.97
2022-09-12T03:51:50.568Z,95778.66
2022-09-12T03:54:18.964Z,95775.69
2022-09-12T03:56:47.547Z,95780.00
2022-09-12T03:59:15.932Z,95775.16
2022-09-12T04:01:44.340Z,95777.31
2022-09-12T04:04:15.187Z,95778.91
2022-09-12T04:06:44.307Z,95785.38
2022-09-12T04:09:14.434Z,95796.16
2022-09-12T04:11:42.892Z,95781.59
2022-09-12T04:14:11.223Z,95780.00
2022-09-12T04:16:39.649Z,95781.06
2022-09-12T04:19:08.052Z,95782.16
2022-09-12T04:21:36.859Z,95776.78
2022-09-12T04:24:05.577Z,95780.81
2022-09-12T04:26:35.427Z,95782.97
2022-09-12T04:29:03.832Z,95779.72
2022-09-12T04:31:32.212Z,95778.91
2022-09-12T04:34:02.674Z,95785.38
2022-09-12T04:36:31.576Z,95789.13
2022-09-12T04:39:00.504Z,95786.19
2022-09-12T04:41:30.908Z,95780.00
2022-09-12T04:44:03.291Z,95782.94
2022-09-12T04:46:34.983Z,95781.06
2022-09-12T04:49:03.455Z,95784.03
2022-09-12T04:51:33.999Z,95784.84
2022-09-12T04:54:04.873Z,95788.63
2022-09-12T04:56:34.517Z,95784.31
2022-09-12T04:59:04.365Z,95781.59
2022-09-12T05:01:33.163Z,95786.19
2022-09-12T05:04:02.380Z,95780.53
2022-09-12T05:06:32.548Z,95783.25
2022-09-12T05:09:02.108Z,95789.69
2022-09-12T05:11:59.790Z,95794.00
2022-09-12T05:14:22.911Z,95791.03
2022-09-12T05:16:51.336Z,95795.06
2022-09-12T05:19:19.990Z,95799.41
2022-09-12T05:21:48.377Z,95796.41
2022-09-12T05:24:17.175Z,95797.22
2022-09-12T05:26:45.480Z,95800.47
2022-09-12T05:29:14.223Z,95802.63
2022-09-12T05:31:43.956Z,95799.41
2022-09-12T05:34:12.836Z,95768.13
2022-09-12T05:36:41.708Z,95806.94
2022-09-12T05:39:10.130Z,95805.84
2022-09-12T05:41:38.520Z,95807.19
2022-09-12T05:44:08.773Z,95808.53
2022-09-12T05:46:39.704Z,95748.47
2022-09-12T05:49:11.584Z,95808.53
2022-09-12T05:51:41.999Z,95807.97
2022-09-12T05:54:12.357Z,95807.44
2022-09-12T05:56:42.689Z,95815.81
2022-09-12T05:59:14.323Z,95814.72
2022-09-12T06:01:42.812Z,95815.00
2022-09-12T06:04:13.415Z,95803.66
2022-09-12T06:06:45.209Z,95816.84
2022-09-12T06:09:14.749Z,95799.34
2022-09-12T06:11:43.770Z,95810.13
2022-09-12T06:14:13.473Z,95809.28
2022-09-12T06:16:42.223Z,95812.75
2022-09-12T06:19:17.528Z,95804.38
2022-09-12T06:21:46.292Z,95767.53
2022-09-12T06:24:14.761Z,95809.47
2022-09-12T06:26:43.992Z,95802.97
2022-09-12T06:29:13.507Z,95808.88
2022-09-12T06:31:43.386Z,95805.38
2022-09-12T06:34:14.203Z,95799.13
2022-09-12T06:36:45.679Z,95771.69
2022-09-12T06:39:16.400Z,95798.56
2022-09-12T06:41:45.528Z,95806.34
2022-09-12T06:44:16.531Z,95738.25
2022-09-12T06:46:45.800Z,95799.84
2022-09-12T06:49:15.065Z,95802.03
2022-09-12T06:51:44.995Z,95782.09
2022-09-12T06:54:15.576Z,95777.97
2022-09-12T06:56:44.264Z,95802.16
2022-09-12T06:59:12.675Z,95795.94
2022-09-12T07:01:42.092Z,95775.69
2022-09-12T07:04:11.968Z,95808.56
2022-09-12T07:06:41.589Z,95808.28
2022-09-12T07:09:13.462Z,95810.13
2022-09-12T07:11:43.924Z,95805.78
2022-09-12T07:14:14.292Z,95808.44
2022-09-12T07:16:43.027Z,95774.47
2022-09-12T07:19:12.257Z,95809.97
2022-09-12T07:21:41.742Z,95807.25
2022-09-12T07:24:12.134Z,95759.56
2022-09-12T07:26:42.452Z,95809.28
2022-09-12T07:32:05.849Z,95807.56
2022-09-12T07:34:34.604Z,95746.22
2022-09-12T07:37:02.937Z,95803.94
2022-09-12T07:39:33.148Z,95810.91
2022-09-12T07:42:01.923Z,95805.16
2022-09-12T07:44:30.757Z,95798.59
2022-09-12T07:46:59.395Z,95808.31
2022-09-12T07:49:27.800Z,95802.84
2022-09-12T07:51:56.298Z,95796.78
2022-09-12T07:54:24.731Z,95797.03
2022-09-12T07:56:54.515Z,95799.66
2022-09-12T07:59:48.370Z,95802.03
2022-09-12T08:02:17.540Z,95798.19
2022-09-12T08:04:46.760Z,95802.72
2022-09-12T08:07:15.119Z,95766.41
2022-09-12T08:09:43.496Z,95811.53
2022-09-12T08:12:13.338Z,95806.28
2022-09-12T08:14:41.836Z,95809.88
2022-09-12T08:17:10.267Z,95809.81
2022-09-12T08:19:39.287Z,95801.69
2022-09-12T08:22:07.615Z,95806.66
2022-09-12T08:24:36.007Z,95809.84
2022-09-12T08:27:04.835Z,95813.03
2022-09-12T08:29:34.731Z,95812.94
2022-09-12T08:32:03.204Z,95811.28
2022-09-12T08:34:31.670Z,95807.88
2022-09-12T08:37:00.065Z,95815.84
2022-09-12T08:39:28.434Z,95809.84
2022-09-12T08:42:03.222Z,95809.25
2022-09-12T08:45:02.511Z,95811.31
2022-09-12T08:47:35.360Z,95811.72
2022-09-12T08:50:15.543Z,95809.94
2022-09-12T08:52:53.413Z,95811.69
2022-09-12T08:55:29.151Z,95807.56
2022-09-12T08:57:57.636Z,95807.47
2022-09-12T09:00:32.319Z,95807.56
2022-09-12T09:03:14.885Z,95758.97
2022-09-12T09:05:51.557Z,95805.03
2022-09-12T09:08:40.192Z,95802.41
2022-09-12T09:11:23.728Z,95797.03
2022-09-12T09:14:30.031Z,95800.84
2022-09-12T09:17:01.546Z,95792.78
2022-09-12T09:19:34.207Z,95785.34
2022-09-12T09:22:06.833Z,95749.72
2022-09-12T09:24:40.889Z,95788.28
2022-09-12T09:27:39.280Z,95746.94
2022-09-12T09:30:06.147Z,95792.47
2022-09-12T09:32:39.613Z,95785.66
2022-09-12T09:35:18.928Z,95782.34
2022-09-12T09:38:12.574Z,95788.94
2022-09-12T09:40:53.895Z,95782.50
2022-09-12T09:43:24.461Z,95779.91
2022-09-12T09:45:54.230Z,95787.31
2022-09-12T09:48:27.497Z,95781.84
2022-09-12T09:50:56.101Z,95777.59
2022-09-12T09:53:33.768Z,95780.06
2022-09-12T09:56:07.368Z,95784.41
2022-09-12T09:58:36.497Z,95777.97
2022-09-12T10:01:07.059Z,95755.56
2022-09-12T10:03:39.827Z,95775.50
2022-09-12T10:06:22.624Z,95749.28
2022-09-12T10:08:52.292Z,95777.38
2022-09-12T10:11:23.212Z,95770.53
2022-09-12T10:13:57.075Z,95758.72
2022-09-12T10:16:28.205Z,95767.44
2022-09-12T10:18:59.303Z,95756.38
2022-09-12T10:21:35.025Z,95758.19
2022-09-12T10:24:07.944Z,95756.28
2022-09-12T10:26:40.504Z,95750.53
2022-09-12T10:29:17.119Z,95745.91
2022-09-12T10:31:51.491Z,95745.28
2022-09-12T10:34:28.099Z,95753.66
2022-09-12T10:37:03.035Z,95750.97
2022-09-12T10:39:33.573Z,95727.03
2022-09-12T10:42:02.407Z,95746.66
2022-09-12T10:44:32.993Z,95748.56
2022-09-12T10:47:20.711Z,95747.94
2022-09-12T10:49:51.343Z,95741.97
2022-09-12T10:52:23.831Z,95699.09
2022-09-12T10:54:52.518Z,95746.94
2022-09-12T10:57:53.181Z,95741.97
2022-09-12T11:00:28.007Z,95748.28
2022-09-12T11:03:07.077Z,95749.28
2022-09-12T11:05:46.620Z,95751.84
2022-09-12T11:08:38.874Z,95710.75
2022-09-12T11:11:16.116Z,95735.19
2022-09-12T11:14:03.516Z,95729.09
2022-09-12T11:16:41.099Z,95734.56
2022-09-12T11:19:29.832Z,95731.03
2022-09-12T11:22:15.626Z,95732.00
2022-09-12T11:24:57.164Z,95733.28
2022-09-12T11:27:39.196Z,95700.03
2022-09-12T11:30:12.387Z,95727.66
2022-09-12T11:33:15.401Z,95740.19
2022-09-12T11:35:54.981Z,95731.38
2022-09-12T11:38:50.765Z,95734.25
2022-09-12T11:41:25.097Z,95737.75
2022-09-12T11:43:59.269Z,95736.66
2022-09-12T11:46:36.379Z,95734.72
2022-09-12T11:49:15.799Z,95733.91
2022-09-12T11:51:49.682Z,95732.31
2022-09-12T11:54:25.990Z,95733.75
2022-09-12T11:57:02.280Z,95731.19
2022-09-12T11:59:38.479Z,95731.19
2022-09-12T12:02:13.740Z,95728.16
2022-09-12T12:04:51.837Z,95727.84
2022-09-12T12:07:20.413Z,95710.34
2022-09-12T12:09:55.689Z,95711.91
2022-09-12T12:12:28.930Z,95719.16
2022-09-12T12:14:59.222Z,95718.34
2022-09-12T12:17:29.815Z,95714.31
2022-09-12T12:20:05.529Z,95695.69
2022-09-12T12:22:36.212Z,95712.72
2022-09-12T12:25:29.628Z,95699.03
2022-09-12T12:28:02.004Z,95709.78
2022-09-12T12:31:02.230Z,95717.16
2022-09-12T12:34:02.836Z,95705.56
2022-09-12T12:36:41.975Z,95706.19
2022-09-12T12:39:55.842Z,95699.25
2022-09-12T12:43:06.374Z,95566.97
2022-09-12T12:46:06.484Z,95647.63
2022-09-12T12:48:45.665Z,95684.59
2022-09-12T12:51:26.075Z,95691.53
2022-09-12T12:53:56.016Z,95686.69
2022-09-12T12:56:33.722Z,95680.50
2022-09-12T12:59:04.757Z,95654.03
2022-09-12T13:01:41.203Z,95677.88
2022-09-12T13:04:17.067Z,95672.84
2022-09-12T13:06:47.956Z,95668.06
2022-09-12T13:09:28.702Z,95666.50
2022-09-12T13:12:05.493Z,95662.69
2022-09-12T13:14:39.083Z,95658.84
2022-09-12T13:17:09.550Z,95655.81
2022-09-12T13:19:39.550Z,95660.81
2022-09-12T13:22:10.808Z,95661.28
2022-09-12T13:24:45.165Z,95654.94
2022-09-12T13:27:19.998Z,95658.84
2022-09-12T13:29:48.342Z,95646.28
2022-09-12T13:32:19.786Z,95619.69
2022-09-12T13:35:05.819Z,95635.00
2022-09-12T13:37:51.587Z,95639.50
2022-09-12T13:40:35.156Z,95635.34
2022-09-12T13:43:15.200Z,95640.81
2022-09-12T13:45:45.852Z,95632.16
2022-09-12T13:48:20.378Z,95629.69
2022-09-12T13:50:53.699Z,95629.03
2022-09-12T13:53:25.269Z,95517.09
2022-09-12T13:55:57.647Z,95618.97
2022-09-12T13:58:27.772Z,95624.72
2022-09-12T14:01:04.584Z,95618.09
2022-09-12T14:03:56.815Z,95598.09
2022-09-12T14:06:27.862Z,95625.09
2022-09-12T14:08:59.103Z,95622.81
2022-09-12T14:11:29.788Z,95609.16
2022-09-12T14:13:59.036Z,95622.44
2022-09-12T14:16:29.213Z,95619.25
2022-09-12T14:19:00.764Z,95622.44
2022-09-12T14:21:35.827Z,95608.16
2022-09-12T14:24:07.508Z,95537.72
2022-09-12T14:26:37.714Z,95611.50
2022-09-12T14:29:07.865Z,95607.31
2022-09-12T14:31:37.797Z,95610.03
2022-09-12T14:34:15.878Z,95611.38
2022-09-12T14:36:47.941Z,95596.13
2022-09-12T14:39:30.305Z,95609.63
2022-09-12T14:42:08.040Z,95609.44
2022-09-12T14:44:37.573Z,95603.44
2022-09-12T14:47:16.265Z,95592.03
2022-09-12T14:49:46.180Z,95602.19
2022-09-12T14:52:26.354Z,95592.81
2022-09-12T14:54:58.942Z,95590.28
2022-09-12T14:57:39.084Z,95581.44
2022-09-12T15:00:28.158Z,95576.56
2022-09-12T15:02:56.733Z,95575.09
2022-09-12T15:05:29.191Z,95576.97
2022-09-12T15:08:00.765Z,95580.84
2022-09-12T15:10:33.167Z,95553.06
2022-09-12T15:13:22.610Z,95576.56
2022-09-12T15:15:53.477Z,95559.03
2022-09-12T15:18:23.091Z,95573.03
2022-09-12T15:20:56.358Z,95576.44
2022-09-12T15:23:43.977Z,95575.69
2022-09-12T15:26:14.677Z,95572.50
2022-09-12T15:28:43.261Z,95567.22
2022-09-12T15:31:17.335Z,95568.34
2022-09-12T15:33:46.401Z,95570.13
2022-09-12T15:36:18.909Z,95568.56
2022-09-12T15:38:48.400Z,95572.41
2022-09-12T15:41:20.220Z,95548.97
2022-09-12T15:43:49.229Z,95570.13
2022-09-12T15:46:19.399Z,95544.50
2022-09-12T15:48:47.911Z,95559.19
2022-09-12T15:51:19.404Z,95565.97
2022-09-12T15:53:49.278Z,95538.84
2022-09-12T15:56:19.107Z,95553.28
2022-09-12T15:58:58.106Z,95556.00
2022-09-12T16:01:27.963Z,95479.19
2022-09-12T16:03:56.453Z,95498.38
2022-09-12T16:06:27.250Z,95548.66
2022-09-12T16:08:55.652Z,95545.44
2022-09-12T16:11:25.954Z,95545.44
2022-09-12T16:13:55.369Z,95546.88
2022-09-12T16:16:24.417Z,95549.97
2022-09-12T16:18:52.916Z,95544.81
2022-09-12T16:21:21.388Z,95529.19
2022-09-12T16:23:51.679Z,95545.38
2022-09-12T16:26:20.075Z,95526.34
2022-09-12T16:28:48.778Z,95544.31
2022-09-12T16:31:17.270Z,95529.44
2022-09-12T16:33:45.712Z,95525.25
2022-09-12T16:36:16.056Z,95531.50
2022-09-12T16:38:45.146Z,95536.88
2022-09-12T16:41:16.580Z,95538.00
2022-09-12T16:43:45.697Z,95528.38
2022-09-12T16:46:16.689Z,95534.38
2022-09-12T16:48:51.577Z,95526.66
2022-09-12T16:51:23.012Z,95530.69
2022-09-12T16:53:52.896Z,95524.47
2022-09-12T16:56:23.032Z,95515.19
2022-09-12T16:58:51.839Z,95437.69
2022-09-12T17:01:22.117Z,95524.19
2022-09-12T17:03:54.860Z,95525.03
2022-09-12T17:06:23.440Z,95520.72
2022-09-12T17:08:54.692Z,95506.66
2022-09-12T17:11:26.625Z,95499.72
2022-09-12T17:14:06.056Z,95515.63
2022-09-12T17:16:36.633Z,95512.53
2022-09-12T17:19:05.849Z,95506.16
2022-09-12T17:21:35.448Z,95481.97
2022-09-12T17:24:04.592Z,95515.75
2022-09-12T17:26:34.735Z,95502.94
2022-09-12T17:29:03.612Z,95496.06
2022-09-12T17:31:32.854Z,95502.31
2022-09-12T17:34:02.625Z,95505.19
2022-09-12T17:36:32.524Z,95511.91
2022-09-12T17:39:01.054Z,95506.13
2022-09-12T17:41:32.016Z,95507.41
2022-09-12T17:44:03.702Z,95486.03
2022-09-12T17:46:35.249Z,95488.13
2022-09-12T17:49:05.547Z,95505.66
2022-09-12T17:51:34.226Z,95497.25
2022-09-12T17:54:05.717Z,95512.63
2022-09-12T17:56:35.811Z,95482.97
2022-09-12T17:59:07.867Z,95431.81
2022-09-12T18:01:53.702Z,95495.75
2022-09-12T18:04:22.442Z,95489.00
2022-09-12T18:06:51.132Z,95500.56
2022-09-12T18:09:22.187Z,95507.13
2022-09-12T18:11:51.110Z,95496.53
2022-09-12T18:14:21.288Z,95500.22
2022-09-12T18:16:49.869Z,95495.41
2022-09-12T18:19:18.803Z,95489.78
2022-09-12T18:21:47.776Z,95483.88
2022-09-12T18:24:16.639Z,95492.31
2022-09-12T18:26:45.076Z,95488.66
2022-09-12T18:29:17.001Z,95490.88
2022-09-12T18:31:47.578Z,95471.28
2022-09-12T18:34:16.456Z,95479.28
2022-09-12T18:36:47.079Z,95485.53
2022-09-12T18:39:16.141Z,95490.81
2022-09-12T18:41:45.150Z,95488.72
2022-09-12T18:44:13.883Z,95484.41
2022-09-12T18:46:42.396Z,95485.03
2022-09-12T18:49:12.860Z,95488.22
2022-09-12T18:51:42.013Z,95491.91
2022-09-12T18:54:14.310Z,95470.81
2022-09-12T18:56:44.135Z,95485.94
2022-09-12T18:59:15.128Z,95489.81
2022-09-12T19:01:44.125Z,95490.44
2022-09-12T19:04:16.905Z,95475.00
2022-09-12T19:06:46.586Z,95473.53
2022-09-12T19:09:16.839Z,95490.69
2022-09-12T19:11:49.897Z,95496.56
2022-09-12T19:14:19.962Z,95500.72
2022-09-12T19:16:48.352Z,95509.19
2022-09-12T19:19:18.600Z,95494.31
2022-09-12T19:21:47.777Z,95506.59
2022-09-12T19:24:17.248Z,95493.00
2022-09-12T19:26:46.518Z,95506.91
2022-09-12T19:29:16.760Z,95504.19
2022-09-12T19:31:45.404Z,95501.28
2022-09-12T19:34:14.538Z,95502.09
2022-09-12T19:36:46.262Z,95509.75
2022-09-12T19:39:19.742Z,95500.00
2022-09-12T19:41:48.920Z,95503.53
2022-09-12T19:44:19.440Z,95470.44
2022-09-12T19:46:47.909Z,95510.81
2022-09-12T19:49:16.484Z,95510.63
2022-09-12T19:51:46.313Z,95501.38
2022-09-12T19:54:14.680Z,95483.66
2022-09-12T19:56:43.285Z,95492.34
2022-09-12T19:59:11.972Z,95505.72
2022-09-12T20:01:40.434Z,95473.72
2022-09-12T20:04:09.087Z,95495.56
2022-09-12T20:06:37.447Z,95494.47
2022-09-12T20:09:07.386Z,95490.75
2022-09-12T20:11:35.792Z,95487.53
2022-09-12T20:14:04.371Z,95482.25
2022-09-12T20:16:33.702Z,95483.22
2022-09-12T20:19:06.163Z,95446.72
2022-09-12T20:21:36.184Z,95460.69
2022-09-12T20:24:08.392Z,95476.44
2022-09-12T20:26:37.245Z,95487.16
2022-09-12T20:29:06.137Z,95483.97
2022-09-12T20:31:35.841Z,95460.63
2022-09-12T20:34:04.772Z,95485.78
2022-09-12T20:36:33.281Z,95486.53
2022-09-12T20:39:02.849Z,95485.94
2022-09-12T20:41:35.848Z,95481.31
2022-09-12T20:44:04.559Z,95478.91
2022-09-12T20:46:33.306Z,95475.06
2022-09-12T20:49:01.795Z,95474.25
2022-09-12T20:51:30.608Z,95470.75
2022-09-12T20:54:00.205Z,95472.19
2022-09-12T20:56:29.624Z,95463.03
2022-09-12T20:59:00.905Z,95444.31
2022-09-12T21:01:31.590Z,95391.31
2022-09-12T21:04:01.353Z,95446.38
2022-09-12T21:06:29.845Z,95444.28
2022-09-12T21:09:00.760Z,95442.16
2022-09-12T21:11:30.052Z,95445.50
2022-09-12T21:13:59.961Z,95443.13
2022-09-12T21:16:28.480Z,95443.25
2022-09-12T21:18:58.818Z,95435.41
2022-09-12T21:21:27.952Z,95433.63
2022-09-12T21:24:00.003Z,95439.84
2022-09-12T21:26:28.497Z,95437.44
2022-09-12T21:28:56.907Z,95429.91
2022-09-12T21:31:27.194Z,95444.38
2022-09-12T21:33:55.662Z,95442.09
2022-09-12T21:36:25.181Z,95437.88
2022-09-12T21:38:53.592Z,95426.03
2022-09-12T21:41:21.952Z,95424.53
2022-09-12T21:43:50.923Z,95419.22
2022-09-12T21:46:19.881Z,95409.59
2022-09-12T21:48:49.990Z,95404.31
2022-09-12T21:51:18.444Z,95402.81
2022-09-12T21:53:47.581Z,95405.66
2022-09-12T21:56:16.089Z,95409.25
2022-09-12T21:58:44.876Z,95406.34
2022-09-12T22:01:13.580Z,95405.84
2022-09-12T22:03:43.214Z,95393.44
2022-09-12T22:06:14.369Z,95402.88
2022-09-12T22:08:42.790Z,95375.09
2022-09-12T22:11:11.899Z,95336.16
2022-09-12T22:13:43.540Z,95363.13
2022-09-12T22:16:12.304Z,95383.81
2022-09-12T22:18:40.970Z,95383.09
2022-09-12T22:21:13.274Z,95374.28
2022-09-12T22:24:01.217Z,95368.84
2022-09-12T22:26:30.236Z,95363.44
2022-09-12T22:28:58.654Z,95371.09
2022-09-12T22:31:27.476Z,95367.47
2022-09-12T22:33:57.231Z,95364.84
2022-09-12T22:36:30.518Z,95366.56
2022-09-12T22:39:01.355Z,95370.16
2022-09-12T22:41:30.246Z,95371.66
2022-09-12T22:43:58.939Z,95368.31
2022-09-12T22:46:27.722Z,95363.09
2022-09-12T22:48:56.979Z,95355.84
2022-09-12T22:51:25.555Z,95354.03
2022-09-12T22:53:54.695Z,95352.41
2022-09-12T22:56:25.061Z,95349.50
2022-09-12T22:58:53.643Z,95355.41
2022-09-12T23:01:22.382Z,95347.91
2022-09-12T23:03:51.012Z,95319.69
2022-09-12T23:06:19.629Z,95349.97
2022-09-12T23:08:48.075Z,95332.03
2022-09-12T23:11:19.249Z,95344.84
2022-09-12T23:13:51.115Z,95332.72
2022-09-12T23:16:21.468Z,95331.50
2022-09-12T23:18:50.314Z,95329.72
2022-09-12T23:21:20.437Z,95326.00
2022-09-12T23:23:49.386Z,95332.50
2022-09-12T23:26:19.413Z,95326.00
2022-09-12T23:28:53.020Z,95326.09
2022-09-12T23:31:22.058Z,95316.66
2022-09-12T23:33:51.396Z,95292.38
2022-09-12T23:36:19.758Z,95323.91
2022-09-12T23:38:48.758Z,95302.03
2022-09-12T23:41:18.366Z,95326.66
2022-09-12T23:43:47.338Z,95325.09
2022-09-12T23:46:19.007Z,95324.78
2022-09-12T23:48:47.703Z,95324.28
2022-09-12T23:51:17.090Z,95275.00
2022-09-12T23:53:45.454Z,95315.84
2022-09-12T23:56:14.090Z,95313.69
2022-09-12T23:58:42.531Z,95318.50
